createdAt,value
2018-12-17T00:02:10.208Z,22.68
2018-12-17T00:04:36.852Z,22.71
2018-12-17T00:07:03.517Z,22.70
2018-12-17T00:09:31.446Z,22.63
2018-12-17T00:11:56.817Z,22.69
2018-12-17T00:14:23.468Z,22.71
2018-12-17T00:16:50.156Z,22.74
2018-12-17T00:19:16.793Z,22.74
2018-12-17T00:21:43.438Z,22.76
2018-12-17T00:24:10.098Z,22.79
2018-12-17T00:26:36.740Z,22.77
2018-12-17T00:29:03.372Z,22.81
2018-12-17T00:31:30.017Z,22.83
2018-12-17T00:33:56.710Z,22.83
2018-12-17T00:36:23.354Z,22.85
2018-12-17T00:38:50.003Z,22.86
2018-12-17T00:41:16.661Z,22.84
2018-12-17T00:43:43.354Z,22.81
2018-12-17T00:46:09.991Z,22.74
2018-12-17T00:48:36.639Z,22.66
2018-12-17T00:51:03.288Z,22.67
2018-12-17T00:53:29.956Z,22.67
2018-12-17T00:55:56.645Z,22.67
2018-12-17T00:58:23.276Z,22.68
2018-12-17T01:00:49.927Z,22.72
2018-12-17T01:03:16.572Z,22.73
2018-12-17T01:05:43.210Z,22.73
2018-12-17T01:08:09.858Z,22.75
2018-12-17T01:10:36.583Z,22.75
2018-12-17T01:13:03.154Z,22.79
2018-12-17T01:15:29.804Z,22.81
2018-12-17T01:17:56.462Z,22.79
2018-12-17T01:20:23.134Z,22.80
2018-12-17T01:22:49.823Z,22.81
2018-12-17T01:25:16.475Z,22.81
2018-12-17T01:27:43.112Z,22.83
2018-12-17T01:30:09.760Z,22.80
2018-12-17T01:32:36.411Z,22.76
2018-12-17T01:35:03.054Z,22.68
2018-12-17T01:37:29.701Z,22.70
2018-12-17T01:39:56.368Z,22.68
2018-12-17T01:42:23.053Z,22.70
2018-12-17T01:44:49.692Z,22.70
2018-12-17T01:47:16.347Z,22.74
2018-12-17T01:49:42.983Z,22.74
2018-12-17T01:52:09.672Z,22.76
2018-12-17T01:54:36.314Z,22.79
2018-12-17T01:57:03.026Z,22.78
2018-12-17T01:59:29.669Z,22.82
2018-12-17T02:01:56.311Z,22.82
2018-12-17T02:04:22.972Z,22.82
2018-12-17T02:06:49.613Z,22.85
2018-12-17T02:09:16.320Z,22.84
2018-12-17T02:11:42.958Z,22.85
2018-12-17T02:14:09.616Z,22.88
2018-12-17T02:16:36.260Z,22.86
2018-12-17T02:19:02.953Z,22.88
2018-12-17T02:21:29.593Z,22.83
2018-12-17T02:23:56.284Z,22.75
2018-12-17T02:26:25.889Z,22.74
2018-12-17T02:28:52.540Z,22.73
2018-12-17T02:31:19.235Z,22.72
2018-12-17T02:33:45.876Z,22.69
2018-12-17T02:36:12.525Z,22.75
2018-12-17T02:38:39.166Z,22.78
2018-12-17T02:41:05.813Z,22.81
2018-12-17T02:43:32.580Z,22.80
2018-12-17T02:45:59.224Z,22.76
2018-12-17T02:48:25.874Z,22.76
2018-12-17T02:50:52.516Z,22.53
2018-12-17T02:53:19.216Z,22.29
2018-12-17T02:55:45.865Z,22.16
2018-12-17T02:58:12.561Z,22.19
2018-12-17T03:00:39.205Z,22.38
2018-12-17T03:03:05.848Z,22.43
2018-12-17T03:05:32.507Z,22.45
2018-12-17T03:07:59.175Z,22.48
2018-12-17T03:10:25.820Z,22.51
2018-12-17T03:12:52.554Z,22.52
2018-12-17T03:15:19.196Z,22.56
2018-12-17T03:17:45.896Z,22.63
2018-12-17T03:20:12.594Z,22.64
2018-12-17T03:22:39.239Z,22.67
2018-12-17T03:25:05.893Z,22.65
2018-12-17T03:27:32.553Z,22.72
2018-12-17T03:29:59.195Z,22.72
2018-12-17T03:32:25.837Z,22.74
2018-12-17T03:34:52.478Z,22.72
2018-12-17T03:37:19.114Z,22.69
2018-12-17T03:39:45.769Z,22.61
2018-12-17T03:42:12.455Z,22.61
2018-12-17T03:44:39.091Z,22.59
2018-12-17T03:47:05.777Z,22.57
2018-12-17T03:49:32.487Z,22.61
2018-12-17T03:51:59.135Z,22.65
2018-12-17T03:54:25.779Z,22.66
2018-12-17T03:56:52.424Z,22.69
2018-12-17T03:59:19.086Z,22.71
2018-12-17T04:01:45.724Z,22.71
2018-12-17T04:04:12.414Z,22.72
2018-12-17T04:06:39.113Z,22.73
2018-12-17T04:09:05.747Z,22.74
2018-12-17T04:11:32.397Z,22.76
2018-12-17T04:13:59.048Z,22.77
2018-12-17T04:16:25.688Z,22.80
2018-12-17T04:18:52.348Z,22.78
2018-12-17T04:21:18.984Z,22.76
2018-12-17T04:23:45.678Z,22.71
2018-12-17T04:26:12.321Z,22.66
2018-12-17T04:28:38.966Z,22.67
2018-12-17T04:31:05.604Z,22.66
2018-12-17T04:33:32.276Z,22.62
2018-12-17T04:35:58.904Z,22.66
2018-12-17T04:38:25.588Z,22.69
2018-12-17T04:40:52.231Z,22.72
2018-12-17T04:43:18.921Z,22.75
2018-12-17T04:45:45.558Z,22.75
2018-12-17T04:48:12.257Z,22.76
2018-12-17T04:50:38.898Z,22.76
2018-12-17T04:53:05.545Z,22.77
2018-12-17T04:55:32.186Z,22.98
2018-12-17T04:57:58.836Z,22.94
2018-12-17T05:00:25.580Z,22.90
2018-12-17T05:02:52.236Z,22.96
2018-12-17T05:05:18.873Z,22.92
2018-12-17T05:07:45.532Z,22.88
2018-12-17T05:10:12.176Z,22.82
2018-12-17T05:12:38.821Z,22.76
2018-12-17T05:15:05.493Z,22.80
2018-12-17T05:17:32.146Z,22.76
2018-12-17T05:19:58.787Z,22.72
2018-12-17T05:22:25.477Z,22.73
2018-12-17T05:24:52.115Z,22.75
2018-12-17T05:27:18.820Z,22.77
2018-12-17T05:29:45.473Z,22.81
2018-12-17T05:32:12.107Z,22.80
2018-12-17T05:34:38.761Z,22.84
2018-12-17T05:37:05.467Z,22.86
2018-12-17T05:39:32.124Z,22.93
2018-12-17T05:41:58.761Z,23.03
2018-12-17T05:44:25.429Z,22.95
2018-12-17T05:46:52.065Z,22.93
2018-12-17T05:49:18.722Z,22.87
2018-12-17T05:51:45.365Z,22.85
2018-12-17T05:54:12.066Z,22.79
2018-12-17T05:56:38.711Z,22.72
2018-12-17T05:59:05.403Z,22.68
2018-12-17T06:01:32.047Z,22.69
2018-12-17T06:03:58.713Z,22.72
2018-12-17T06:06:25.376Z,22.75
2018-12-17T06:08:52.177Z,22.78
2018-12-17T06:11:18.916Z,22.81
2018-12-17T06:13:45.571Z,22.88
2018-12-17T06:16:12.223Z,22.87
2018-12-17T06:18:38.963Z,22.91
2018-12-17T06:21:05.601Z,22.97
2018-12-17T06:23:32.293Z,22.96
2018-12-17T06:25:58.932Z,22.94
2018-12-17T06:28:25.648Z,22.95
2018-12-17T06:30:52.302Z,22.95
2018-12-17T06:33:18.947Z,22.94
2018-12-17T06:35:45.655Z,22.87
2018-12-17T06:38:12.347Z,23.00
2018-12-17T06:40:39.013Z,22.95
2018-12-17T06:43:05.666Z,22.89
2018-12-17T06:45:32.373Z,22.88
2018-12-17T06:47:59.029Z,22.85
2018-12-17T06:50:25.726Z,22.98
2018-12-17T06:52:52.388Z,22.82
2018-12-17T06:55:19.143Z,22.83
2018-12-17T06:57:45.702Z,22.76
2018-12-17T07:00:13.495Z,22.94
2018-12-17T07:02:40.134Z,22.87
2018-12-17T07:05:06.843Z,22.83
2018-12-17T07:07:33.606Z,22.85
2018-12-17T07:10:00.309Z,22.92
2018-12-17T07:12:27.014Z,22.99
2018-12-17T07:14:53.659Z,23.00
2018-12-17T07:17:20.309Z,23.03
2018-12-17T07:19:47.002Z,23.12
2018-12-17T07:22:13.659Z,23.29
2018-12-17T07:24:40.324Z,23.24
2018-12-17T07:27:07.022Z,23.15
2018-12-17T07:29:33.741Z,23.14
2018-12-17T07:32:00.399Z,23.27
2018-12-17T07:34:27.099Z,23.28
2018-12-17T07:36:54.803Z,23.28
2018-12-17T07:39:21.491Z,23.27
2018-12-17T07:41:48.166Z,23.30
2018-12-17T07:44:14.857Z,23.40
2018-12-17T07:46:41.576Z,23.55
2018-12-17T07:49:08.228Z,23.36
2018-12-17T07:51:34.905Z,23.51
2018-12-17T07:54:01.579Z,23.36
2018-12-17T07:56:28.244Z,23.32
2018-12-17T07:58:54.949Z,23.34
2018-12-17T08:01:21.653Z,23.25
2018-12-17T08:03:48.330Z,23.49
2018-12-17T08:06:15.047Z,23.31
2018-12-17T08:08:41.740Z,23.17
2018-12-17T08:11:08.387Z,23.27
2018-12-17T08:13:35.108Z,23.29
2018-12-17T08:16:01.756Z,23.40
2018-12-17T08:18:28.471Z,23.41
2018-12-17T08:20:55.113Z,23.54
2018-12-17T08:23:21.814Z,23.53
2018-12-17T08:25:49.773Z,23.76
2018-12-17T08:28:15.212Z,23.72
2018-12-17T08:30:41.879Z,23.80
2018-12-17T08:33:08.614Z,23.69
2018-12-17T08:35:35.357Z,23.81
2018-12-17T08:38:01.988Z,23.76
2018-12-17T08:40:28.706Z,23.75
2018-12-17T08:42:55.700Z,23.95
2018-12-17T08:45:22.351Z,23.79
2018-12-17T08:47:49.015Z,23.81
2018-12-17T08:50:15.759Z,23.84
2018-12-17T08:52:42.407Z,23.84
2018-12-17T08:55:09.108Z,23.91
2018-12-17T08:57:38.085Z,23.85
2018-12-17T09:00:02.415Z,24.16
2018-12-17T09:02:29.075Z,23.92
2018-12-17T09:04:55.896Z,23.93
2018-12-17T09:07:22.541Z,23.84
2018-12-17T09:09:49.243Z,23.79
2018-12-17T09:12:15.903Z,23.79
2018-12-17T09:14:42.588Z,23.94
2018-12-17T09:17:09.311Z,23.86
2018-12-17T09:19:36.149Z,23.90
2018-12-17T09:22:02.806Z,23.84
2018-12-17T09:24:29.538Z,23.94
2018-12-17T09:26:56.196Z,23.84
2018-12-17T09:29:22.867Z,23.84
2018-12-17T09:31:49.564Z,23.81
2018-12-17T09:34:17.312Z,23.82
2018-12-17T09:36:44.002Z,23.79
2018-12-17T09:39:10.686Z,24.01
2018-12-17T09:41:37.390Z,23.98
2018-12-17T09:44:04.052Z,23.91
2018-12-17T09:46:30.766Z,23.77
2018-12-17T09:48:57.415Z,23.75
2018-12-17T09:51:24.079Z,23.64
2018-12-17T09:53:50.758Z,23.74
2018-12-17T09:56:17.453Z,23.77
2018-12-17T09:58:44.281Z,23.78
2018-12-17T10:01:12.039Z,23.83
2018-12-17T10:03:38.745Z,23.75
2018-12-17T10:06:05.558Z,23.82
2018-12-17T10:08:32.213Z,23.66
2018-12-17T10:10:58.970Z,23.50
2018-12-17T10:13:25.662Z,23.67
2018-12-17T10:15:52.353Z,23.74
2018-12-17T10:18:19.114Z,23.75
2018-12-17T10:20:45.820Z,23.72
2018-12-17T10:23:12.479Z,23.92
2018-12-17T10:25:39.182Z,23.83
2018-12-17T10:28:05.842Z,23.85
2018-12-17T10:30:32.930Z,23.87
2018-12-17T10:32:59.278Z,23.99
2018-12-17T10:35:26.086Z,23.92
2018-12-17T10:37:52.749Z,23.85
2018-12-17T10:40:19.469Z,23.86
2018-12-17T10:42:46.326Z,23.95
2018-12-17T10:45:13.038Z,23.88
2018-12-17T10:47:39.691Z,23.96
2018-12-17T10:50:06.329Z,23.85
2018-12-17T10:52:32.984Z,23.86
2018-12-17T10:54:59.706Z,23.84
2018-12-17T10:57:27.468Z,23.88
2018-12-17T10:59:54.168Z,23.95
2018-12-17T11:02:20.964Z,23.95
2018-12-17T11:04:47.667Z,23.98
2018-12-17T11:07:14.556Z,24.12
2018-12-17T11:09:41.346Z,23.84
2018-12-17T11:12:08.015Z,23.74
2018-12-17T11:14:34.668Z,23.63
2018-12-17T11:17:01.409Z,23.37
2018-12-17T11:19:28.060Z,23.55
2018-12-17T11:21:54.774Z,23.70
2018-12-17T11:24:21.443Z,23.83
2018-12-17T11:26:51.160Z,23.85
2018-12-17T11:29:18.277Z,24.05
2018-12-17T11:31:44.977Z,24.10
2018-12-17T11:34:11.700Z,24.22
2018-12-17T11:36:38.712Z,24.23
2018-12-17T11:39:06.001Z,24.34
2018-12-17T11:41:32.657Z,24.26
2018-12-17T11:43:59.308Z,24.35
2018-12-17T11:46:26.019Z,24.13
2018-12-17T11:48:52.668Z,24.31
2018-12-17T11:51:19.322Z,24.12
2018-12-17T11:53:46.035Z,24.22
2018-12-17T11:56:12.706Z,24.25
2018-12-17T11:58:39.373Z,24.17
2018-12-17T12:01:06.065Z,24.19
2018-12-17T12:03:32.771Z,24.29
2018-12-17T12:05:59.514Z,24.15
2018-12-17T12:08:26.208Z,24.19
2018-12-17T12:10:53.979Z,24.30
2018-12-17T12:13:20.669Z,24.27
2018-12-17T12:15:47.373Z,24.20
2018-12-17T12:18:14.019Z,24.14
2018-12-17T12:20:40.821Z,24.16
2018-12-17T12:23:07.461Z,24.16
2018-12-17T12:25:34.113Z,24.44
2018-12-17T12:28:00.790Z,24.28
2018-12-17T12:30:27.458Z,24.13
2018-12-17T12:32:54.151Z,24.03
2018-12-17T12:35:20.797Z,24.05
2018-12-17T12:37:47.914Z,24.14
2018-12-17T12:40:14.630Z,24.31
2018-12-17T12:42:41.395Z,24.22
2018-12-17T12:45:08.036Z,24.15
2018-12-17T12:47:34.731Z,24.09
2018-12-17T12:50:01.399Z,24.09
2018-12-17T12:52:28.100Z,24.13
2018-12-17T12:54:54.797Z,24.07
2018-12-17T12:57:21.459Z,24.05
2018-12-17T12:59:50.290Z,24.39
2018-12-17T13:02:16.943Z,24.19
2018-12-17T13:04:43.765Z,24.12
2018-12-17T13:07:10.472Z,24.02
2018-12-17T13:09:37.258Z,24.05
2018-12-17T13:12:03.936Z,24.09
2018-12-17T13:14:30.631Z,24.07
2018-12-17T13:16:57.371Z,24.17
2018-12-17T13:19:24.052Z,24.08
2018-12-17T13:21:50.715Z,24.06
2018-12-17T13:24:17.365Z,24.04
2018-12-17T13:26:44.062Z,24.11
2018-12-17T13:29:10.786Z,24.18
2018-12-17T13:31:37.425Z,24.16
2018-12-17T13:34:04.080Z,24.10
2018-12-17T13:36:30.749Z,24.12
2018-12-17T13:39:00.152Z,24.15
2018-12-17T13:41:26.851Z,24.15
2018-12-17T13:43:53.525Z,24.18
2018-12-17T13:46:20.325Z,24.24
2018-12-17T13:48:47.051Z,24.25
2018-12-17T13:51:13.793Z,24.10
2018-12-17T13:53:40.447Z,24.04
2018-12-17T13:56:07.112Z,24.00
2018-12-17T13:58:33.795Z,23.94
2018-12-17T14:01:00.490Z,24.06
2018-12-17T14:03:27.226Z,24.12
2018-12-17T14:05:53.981Z,24.08
2018-12-17T14:08:20.629Z,24.10
2018-12-17T14:10:47.289Z,23.99
2018-12-17T14:13:13.994Z,23.90
2018-12-17T14:15:40.695Z,23.98
2018-12-17T14:18:07.335Z,23.93
2018-12-17T14:20:33.987Z,23.99
2018-12-17T14:23:00.649Z,24.02
2018-12-17T14:25:27.901Z,23.95
2018-12-17T14:27:54.571Z,23.88
2018-12-17T14:30:21.266Z,23.93
2018-12-17T14:32:47.965Z,23.97
2018-12-17T14:35:14.613Z,23.97
2018-12-17T14:37:41.319Z,23.93
2018-12-17T14:40:08.092Z,23.92
2018-12-17T14:42:34.726Z,24.03
2018-12-17T14:45:01.422Z,24.00
2018-12-17T14:47:28.095Z,23.74
2018-12-17T14:49:54.931Z,23.71
2018-12-17T14:52:24.110Z,23.85
2018-12-17T14:54:50.750Z,23.75
2018-12-17T14:57:17.443Z,23.88
2018-12-17T14:59:44.192Z,23.95
2018-12-17T15:02:12.310Z,23.86
2018-12-17T15:04:37.500Z,23.79
2018-12-17T15:07:04.156Z,23.78
2018-12-17T15:09:30.869Z,23.80
2018-12-17T15:11:57.532Z,23.86
2018-12-17T15:14:24.277Z,23.90
2018-12-17T15:16:50.932Z,23.91
2018-12-17T15:19:17.616Z,23.81
2018-12-17T15:21:44.322Z,23.79
2018-12-17T15:24:11.034Z,23.82
2018-12-17T15:26:38.580Z,23.78
2018-12-17T15:29:05.257Z,23.79
2018-12-17T15:31:31.927Z,23.77
2018-12-17T15:33:58.602Z,23.77
2018-12-17T15:36:25.313Z,23.77
2018-12-17T15:38:52.002Z,23.76
2018-12-17T15:41:18.854Z,23.87
2018-12-17T15:43:45.548Z,23.83
2018-12-17T15:46:12.198Z,23.83
2018-12-17T15:48:38.910Z,23.75
2018-12-17T15:51:05.551Z,23.75
2018-12-17T15:53:32.247Z,23.74
2018-12-17T15:55:58.887Z,23.73
2018-12-17T15:58:25.525Z,23.77
2018-12-17T16:00:52.177Z,23.76
2018-12-17T16:03:18.886Z,23.78
2018-12-17T16:05:45.545Z,23.79
2018-12-17T16:08:12.192Z,23.90
2018-12-17T16:10:38.854Z,23.83
2018-12-17T16:13:05.499Z,23.77
2018-12-17T16:15:32.262Z,23.74
2018-12-17T16:17:58.962Z,23.87
2018-12-17T16:20:25.614Z,23.85
2018-12-17T16:22:52.301Z,23.78
2018-12-17T16:25:18.937Z,23.75
2018-12-17T16:27:45.657Z,23.73
2018-12-17T16:30:12.342Z,23.72
2018-12-17T16:32:38.979Z,23.68
2018-12-17T16:35:05.633Z,23.70
2018-12-17T16:37:32.333Z,23.71
2018-12-17T16:39:58.979Z,23.70
2018-12-17T16:42:25.696Z,23.72
2018-12-17T16:44:52.342Z,23.71
2018-12-17T16:47:18.992Z,23.67
2018-12-17T16:49:45.653Z,23.64
2018-12-17T16:52:12.357Z,23.69
2018-12-17T16:54:40.091Z,23.74
2018-12-17T16:57:05.696Z,23.62
2018-12-17T16:59:32.428Z,23.59
2018-12-17T17:02:04.504Z,23.58
2018-12-17T17:04:25.852Z,23.52
2018-12-17T17:06:52.506Z,23.40
2018-12-17T17:09:19.149Z,23.43
2018-12-17T17:11:45.811Z,23.44
2018-12-17T17:14:12.460Z,23.41
2018-12-17T17:16:39.162Z,23.48
2018-12-17T17:19:05.814Z,23.47
2018-12-17T17:21:32.524Z,23.50
2018-12-17T17:23:59.179Z,23.54
2018-12-17T17:26:25.868Z,23.56
2018-12-17T17:28:52.504Z,23.56
2018-12-17T17:31:19.209Z,23.57
2018-12-17T17:33:49.312Z,23.53
2018-12-17T17:36:16.003Z,23.56
2018-12-17T17:38:42.705Z,23.56
2018-12-17T17:41:09.422Z,23.57
2018-12-17T17:43:36.072Z,23.56
2018-12-17T17:46:02.714Z,23.58
2018-12-17T17:48:29.421Z,23.57
2018-12-17T17:50:56.138Z,23.56
2018-12-17T17:53:22.826Z,23.56
2018-12-17T17:55:49.491Z,23.55
2018-12-17T17:58:16.195Z,23.57
2018-12-17T18:00:42.913Z,23.54
2018-12-17T18:03:09.565Z,23.58
2018-12-17T18:05:36.220Z,23.55
2018-12-17T18:08:02.955Z,23.56
2018-12-17T18:10:29.651Z,23.52
2018-12-17T18:12:56.293Z,23.59
2018-12-17T18:15:23.010Z,23.56
2018-12-17T18:17:49.784Z,23.62
2018-12-17T18:20:16.455Z,23.57
2018-12-17T18:22:43.100Z,23.56
2018-12-17T18:25:09.803Z,23.56
2018-12-17T18:27:36.504Z,23.61
2018-12-17T18:30:03.216Z,23.64
2018-12-17T18:32:29.882Z,23.59
2018-12-17T18:34:56.653Z,23.56
2018-12-17T18:37:23.395Z,23.60
2018-12-17T18:39:50.057Z,23.58
2018-12-17T18:42:16.707Z,23.58
2018-12-17T18:44:43.361Z,23.56
2018-12-17T18:47:10.010Z,23.54
2018-12-17T18:49:36.686Z,23.53
2018-12-17T18:52:03.367Z,23.52
2018-12-17T18:54:30.048Z,23.52
2018-12-17T18:56:56.745Z,23.53
2018-12-17T18:59:23.415Z,23.51
2018-12-17T19:01:50.082Z,23.50
2018-12-17T19:04:16.828Z,23.50
2018-12-17T19:06:43.565Z,23.50
2018-12-17T19:09:10.275Z,23.50
2018-12-17T19:11:36.967Z,23.49
2018-12-17T19:14:03.668Z,23.47
2018-12-17T19:16:30.306Z,23.37
2018-12-17T19:18:56.974Z,23.20
2018-12-17T19:21:23.644Z,22.92
2018-12-17T19:23:50.331Z,22.78
2018-12-17T19:26:17.070Z,22.85
2018-12-17T19:28:43.725Z,22.99
2018-12-17T19:31:10.429Z,23.06
2018-12-17T19:33:37.092Z,23.12
2018-12-17T19:36:03.739Z,23.27
2018-12-17T19:38:30.392Z,23.25
2018-12-17T19:40:57.153Z,23.27
2018-12-17T19:43:23.791Z,23.28
2018-12-17T19:45:52.367Z,23.30
2018-12-17T19:48:17.122Z,23.33
2018-12-17T19:50:43.760Z,23.33
2018-12-17T19:53:10.417Z,23.35
2018-12-17T19:55:37.061Z,23.38
2018-12-17T19:58:03.702Z,23.34
2018-12-17T20:00:30.351Z,23.33
2018-12-17T20:02:56.992Z,23.31
2018-12-17T20:05:23.632Z,23.30
2018-12-17T20:07:50.285Z,23.30
2018-12-17T20:10:17.042Z,23.30
2018-12-17T20:12:43.700Z,23.28
2018-12-17T20:15:10.354Z,23.26
2018-12-17T20:17:37.007Z,23.27
2018-12-17T20:20:03.657Z,23.26
2018-12-17T20:22:30.322Z,23.24
2018-12-17T20:24:56.974Z,23.24
2018-12-17T20:27:23.642Z,23.25
2018-12-17T20:29:50.649Z,23.23
2018-12-17T20:32:16.941Z,23.22
2018-12-17T20:34:43.582Z,23.24
2018-12-17T20:37:10.252Z,23.17
2018-12-17T20:39:36.938Z,23.23
2018-12-17T20:42:03.584Z,23.18
2018-12-17T20:44:30.231Z,23.21
2018-12-17T20:46:56.891Z,23.19
2018-12-17T20:49:23.528Z,23.19
2018-12-17T20:51:50.165Z,23.17
2018-12-17T20:54:16.830Z,23.18
2018-12-17T20:56:43.603Z,23.20
2018-12-17T20:59:10.255Z,23.17
2018-12-17T21:01:36.899Z,23.17
2018-12-17T21:04:03.549Z,23.16
2018-12-17T21:06:30.201Z,23.16
2018-12-17T21:08:56.849Z,23.13
2018-12-17T21:11:23.501Z,23.18
2018-12-17T21:13:50.140Z,23.15
2018-12-17T21:16:16.784Z,23.14
2018-12-17T21:18:43.477Z,23.16
2018-12-17T21:21:10.126Z,23.08
2018-12-17T21:23:36.768Z,23.02
2018-12-17T21:26:03.405Z,23.02
2018-12-17T21:28:30.059Z,23.03
2018-12-17T21:30:56.721Z,23.03
2018-12-17T21:33:23.366Z,23.02
2018-12-17T21:35:50.021Z,23.12
2018-12-17T21:38:16.663Z,23.11
2018-12-17T21:40:43.305Z,23.13
2018-12-17T21:43:09.960Z,23.15
2018-12-17T21:45:36.608Z,23.17
2018-12-17T21:48:03.257Z,23.19
2018-12-17T21:50:29.914Z,23.23
2018-12-17T21:52:56.563Z,23.25
2018-12-17T21:55:23.252Z,23.23
2018-12-17T21:57:49.943Z,23.22
2018-12-17T22:00:16.591Z,23.24
2018-12-17T22:02:43.242Z,23.14
2018-12-17T22:05:09.990Z,23.18
2018-12-17T22:07:36.641Z,23.17
2018-12-17T22:10:03.294Z,23.15
2018-12-17T22:12:29.939Z,23.13
2018-12-17T22:14:56.579Z,23.14
2018-12-17T22:17:23.237Z,23.16
2018-12-17T22:19:49.913Z,23.14
2018-12-17T22:22:16.569Z,23.14
2018-12-17T22:24:43.208Z,23.13
2018-12-17T22:27:09.849Z,23.11
2018-12-17T22:29:36.498Z,23.13
2018-12-17T22:32:03.137Z,23.11
2018-12-17T22:34:29.779Z,23.11
2018-12-17T22:36:56.420Z,23.12
2018-12-17T22:39:23.075Z,23.09
2018-12-17T22:41:49.721Z,23.09
2018-12-17T22:44:16.378Z,23.10
2018-12-17T22:46:43.017Z,23.10
2018-12-17T22:49:09.660Z,23.07
2018-12-17T22:51:36.298Z,23.07
2018-12-17T22:54:02.950Z,23.09
2018-12-17T22:56:29.635Z,23.06
2018-12-17T22:58:56.245Z,23.09
2018-12-17T23:01:22.898Z,23.05
2018-12-17T23:03:49.589Z,23.08
2018-12-17T23:06:16.229Z,23.06
2018-12-17T23:08:42.985Z,23.08
2018-12-17T23:11:09.628Z,23.05
2018-12-17T23:13:36.269Z,23.07
2018-12-17T23:16:02.928Z,23.04
2018-12-17T23:18:29.583Z,22.94
2018-12-17T23:20:56.229Z,22.91
2018-12-17T23:23:22.886Z,22.96
2018-12-17T23:25:49.558Z,22.96
2018-12-17T23:28:16.258Z,22.95
2018-12-17T23:30:42.918Z,23.00
2018-12-17T23:33:09.553Z,23.03
2018-12-17T23:35:36.230Z,23.03
2018-12-17T23:38:02.849Z,23.07
2018-12-17T23:40:29.510Z,23.10
2018-12-17T23:42:56.155Z,23.13
2018-12-17T23:45:22.816Z,23.13
2018-12-17T23:47:49.463Z,23.11
2018-12-17T23:50:16.109Z,23.12
2018-12-17T23:52:42.771Z,23.15
2018-12-17T23:55:09.405Z,23.18
2018-12-17T23:57:36.064Z,23.19
